Time;durP1;ratioP1;P1;durP2;ratioP2;P2;SDS_P1;SDS_P2;PMS_P1;PMS_P2;Temp;Humidity;BMP_temperature;BMP_pressure;BME280_temperature;BME280_humidity;BME280_pressure;Samples;Min_cycle;Max_cycle;Signal;HPM_P1;HPM_P2
2024/01/06 00:01:30;;;;;;;32.28;29.90;;;;;;;;;;5063261;28;20525;-77
2024/01/06 00:04:01;;;;;;;36.80;34.63;;;;;;;;;;5063015;28;20044;-83
2024/01/06 00:06:31;;;;;;;38.15;35.30;;;;;;;;;;5062510;28;20048;-80
2024/01/06 00:09:03;;;;;;;35.03;32.60;;;;;;;;;;5063002;28;20134;-75
2024/01/06 00:11:33;;;;;;;43.88;41.33;;;;;;;;;;5061158;28;20048;-78
2024/01/06 00:14:03;;;;;;;41.05;38.45;;;;;;;;;;5062820;28;20037;-76
2024/01/06 00:16:33;;;;;;;41.47;38.22;;;;;;;;;;5062639;28;20044;-78
2024/01/06 00:19:04;;;;;;;39.83;37.00;;;;;;;;;;5056217;28;20048;-85
2024/01/06 00:21:35;;;;;;;34.53;32.20;;;;;;;;;;5042451;28;20049;-79
2024/01/06 00:24:07;;;;;;;39.78;36.72;;;;;;;;;;5042975;28;20535;-78
2024/01/06 00:26:38;;;;;;;42.05;39.35;;;;;;;;;;5042858;28;20059;-77
2024/01/06 00:29:09;;;;;;;37.08;34.33;;;;;;;;;;5045109;28;20045;-78
2024/01/06 00:31:40;;;;;;;42.05;38.78;;;;;;;;;;5043191;28;20041;-79
2024/01/06 00:34:10;;;;;;;35.42;33.30;;;;;;;;;;5043030;28;20052;-77
2024/01/06 00:36:41;;;;;;;40.25;37.67;;;;;;;;;;5041785;28;20048;-79
2024/01/06 00:39:11;;;;;;;42.53;39.67;;;;;;;;;;5042444;28;20419;-78
2024/01/06 00:41:42;;;;;;;39.28;36.75;;;;;;;;;;5042257;28;20507;-78
2024/01/06 00:44:12;;;;;;;42.08;39.05;;;;;;;;;;5042072;28;20041;-77
2024/01/06 00:46:43;;;;;;;41.05;38.42;;;;;;;;;;5041769;28;20057;-77
2024/01/06 00:49:13;;;;;;;39.75;37.42;;;;;;;;;;5042238;28;20582;-80
2024/01/06 00:51:44;;;;;;;42.90;40.08;;;;;;;;;;5041747;28;20045;-76
2024/01/06 00:54:14;;;;;;;45.83;42.65;;;;;;;;;;5042004;28;20412;-81
2024/01/06 00:56:44;;;;;;;45.67;43.05;;;;;;;;;;5041815;28;20051;-80
2024/01/06 00:59:17;;;;;;;53.60;50.45;;;;;;;;;;5041739;28;20550;-79
2024/01/06 01:01:48;;;;;;;54.75;50.67;;;;;;;;;;5041675;28;20060;-78
2024/01/06 01:04:17;;;;;;;54.67;51.42;;;;;;;;;;5042148;28;20071;-76
2024/01/06 01:06:49;;;;;;;48.20;45.15;;;;;;;;;;5041475;28;20053;-77
2024/01/06 01:09:20;;;;;;;52.67;49.60;;;;;;;;;;5040372;28;20052;-80
2024/01/06 01:11:51;;;;;;;58.90;55.17;;;;;;;;;;5042741;28;20492;-76
2024/01/06 01:14:22;;;;;;;52.58;49.55;;;;;;;;;;5042537;28;20068;-77
2024/01/06 01:16:53;;;;;;;56.45;53.05;;;;;;;;;;5042209;28;20045;-77
2024/01/06 01:19:23;;;;;;;62.03;58.60;;;;;;;;;;5040948;28;20516;-79
2024/01/06 01:21:55;;;;;;;50.90;47.60;;;;;;;;;;5042018;28;20072;-76
2024/01/06 01:24:26;;;;;;;58.38;54.65;;;;;;;;;;5043058;28;20052;-76
2024/01/06 01:26:57;;;;;;;48.47;45.03;;;;;;;;;;5041704;28;20041;-79
2024/01/06 01:29:27;;;;;;;48.30;45.03;;;;;;;;;;5042057;28;20044;-76
2024/01/06 01:31:58;;;;;;;49.70;46.55;;;;;;;;;;5042135;28;20435;-79
2024/01/06 01:34:30;;;;;;;50.05;46.75;;;;;;;;;;5041889;28;20041;-77
2024/01/06 01:37:01;;;;;;;42.05;39.25;;;;;;;;;;5041442;28;20053;-78
2024/01/06 01:39:31;;;;;;;47.40;44.50;;;;;;;;;;5041002;28;21093;-75
2024/01/06 01:42:02;;;;;;;42.63;40.20;;;;;;;;;;5041515;28;20041;-75
2024/01/06 01:44:36;;;;;;;43.65;40.80;;;;;;;;;;5044721;28;20057;-78
2024/01/06 01:47:07;;;;;;;44.10;41.42;;;;;;;;;;5046160;28;20381;-76
2024/01/06 01:49:38;;;;;;;39.22;36.65;;;;;;;;;;5045460;28;20052;-78
2024/01/06 01:52:09;;;;;;;39.65;37.38;;;;;;;;;;5045569;28;20049;-79
2024/01/06 01:54:40;;;;;;;45.65;42.33;;;;;;;;;;5046840;28;20049;-79
2024/01/06 01:57:13;;;;;;;45.70;42.75;;;;;;;;;;5045854;28;20053;-76
2024/01/06 01:59:44;;;;;;;40.20;37.95;;;;;;;;;;5045708;28;20397;-78
2024/01/06 02:02:15;;;;;;;36.85;34.65;;;;;;;;;;5044753;28;20053;-80
2024/01/06 02:04:46;;;;;;;37.80;35.53;;;;;;;;;;5044252;28;20432;-78
2024/01/06 02:07:17;;;;;;;37.95;35.47;;;;;;;;;;5045068;28;20602;-78
2024/01/06 02:09:47;;;;;;;36.08;33.83;;;;;;;;;;5045596;28;20056;-76
2024/01/06 02:12:18;;;;;;;36.25;33.22;;;;;;;;;;5045483;28;20055;-77
2024/01/06 02:14:49;;;;;;;28.45;25.95;;;;;;;;;;5045027;28;20045;-77
2024/01/06 02:17:20;;;;;;;24.88;23.20;;;;;;;;;;5045328;28;20049;-79
2024/01/06 02:19:51;;;;;;;34.20;31.80;;;;;;;;;;5043397;28;20049;-78
2024/01/06 02:22:21;;;;;;;29.70;27.45;;;;;;;;;;5044592;28;20045;-77
2024/01/06 02:24:51;;;;;;;27.23;25.52;;;;;;;;;;5045663;28;20049;-77
2024/01/06 02:27:22;;;;;;;31.13;28.60;;;;;;;;;;5045110;28;20068;-78
2024/01/06 02:29:53;;;;;;;32.22;29.70;;;;;;;;;;5044769;28;20045;-77
2024/01/06 02:32:30;;;;;;;35.50;33.22;;;;;;;;;;5044950;28;20049;-79
2024/01/06 02:35:21;;;;;;;30.33;27.90;;;;;;;;;;5043630;28;20056;-80
2024/01/06 02:37:53;;;;;;;28.75;26.98;;;;;;;;;;5044016;28;20056;-80
2024/01/06 02:40:22;;;;;;;29.75;27.20;;;;;;;;;;5045002;28;20072;-78
2024/01/06 02:42:53;;;;;;;33.40;31.40;;;;;;;;;;5044539;28;20048;-76
2024/01/06 02:45:27;;;;;;;31.00;28.50;;;;;;;;;;5044752;28;20041;-79
2024/01/06 02:47:58;;;;;;;30.98;28.85;;;;;;;;;;5043980;28;20496;-76
2024/01/06 02:50:28;;;;;;;31.55;29.65;;;;;;;;;;5044193;28;20492;-77
2024/01/06 02:52:59;;;;;;;32.63;30.45;;;;;;;;;;5044626;28;20412;-76
2024/01/06 02:55:29;;;;;;;28.73;26.48;;;;;;;;;;5044720;28;20052;-79
2024/01/06 02:58:00;;;;;;;32.85;30.67;;;;;;;;;;5044404;28;20052;-81
2024/01/06 03:00:30;;;;;;;31.95;29.45;;;;;;;;;;5045116;28;20547;-80
2024/01/06 03:03:00;;;;;;;31.73;29.40;;;;;;;;;;5044821;28;20052;-80
2024/01/06 03:05:31;;;;;;;33.40;30.95;;;;;;;;;;5044258;28;20045;-80
2024/01/06 03:08:02;;;;;;;31.40;28.90;;;;;;;;;;5043757;28;20543;-76
2024/01/06 03:10:32;;;;;;;36.08;33.33;;;;;;;;;;5044163;28;20048;-77
2024/01/06 03:13:02;;;;;;;30.77;28.85;;;;;;;;;;5044638;28;20416;-76
2024/01/06 03:15:33;;;;;;;29.83;27.77;;;;;;;;;;5044114;28;20048;-80
2024/01/06 03:18:05;;;;;;;25.58;24.13;;;;;;;;;;5043915;28;20512;-76
2024/01/06 03:20:35;;;;;;;28.83;26.75;;;;;;;;;;5043993;28;20767;-78
2024/01/06 03:23:06;;;;;;;22.85;21.27;;;;;;;;;;5043312;28;20550;-76
2024/01/06 03:25:36;;;;;;;53.50;50.35;;;;;;;;;;5042826;28;20052;-75
2024/01/06 03:28:07;;;;;;;59.30;55.67;;;;;;;;;;5043597;28;20037;-76
2024/01/06 03:30:37;;;;;;;56.30;52.90;;;;;;;;;;5043754;28;20049;-78
2024/01/06 03:33:08;;;;;;;56.67;53.42;;;;;;;;;;5042361;28;20049;-77
2024/01/06 03:35:38;;;;;;;56.45;52.72;;;;;;;;;;5043423;28;20060;-79
2024/01/06 03:38:09;;;;;;;56.40;52.80;;;;;;;;;;5043413;28;20048;-75
2024/01/06 03:40:39;;;;;;;62.40;58.83;;;;;;;;;;5043155;28;20045;-79
2024/01/06 03:43:10;;;;;;;55.38;51.97;;;;;;;;;;5043931;28;20049;-78
2024/01/06 03:45:39;;;;;;;58.75;55.15;;;;;;;;;;5042980;28;20049;-78
2024/01/06 03:48:10;;;;;;;50.10;46.70;;;;;;;;;;5042162;28;20053;-77
2024/01/06 03:50:41;;;;;;;59.92;56.10;;;;;;;;;;5043895;28;20051;-78
2024/01/06 03:53:11;;;;;;;63.75;59.85;;;;;;;;;;5043870;28;20048;-79
2024/01/06 03:55:43;;;;;;;55.60;52.10;;;;;;;;;;5044663;28;20049;-76
2024/01/06 03:58:13;;;;;;;63.35;59.75;;;;;;;;;;5043102;28;20057;-78
2024/01/06 04:00:44;;;;;;;60.83;57.38;;;;;;;;;;5043255;28;20052;-76
2024/01/06 04:03:14;;;;;;;55.58;52.38;;;;;;;;;;5042733;28;20049;-76
2024/01/06 04:05:45;;;;;;;51.95;48.85;;;;;;;;;;5042462;28;20056;-76
2024/01/06 04:08:18;;;;;;;62.28;58.75;;;;;;;;;;5042986;28;20524;-77
2024/01/06 04:10:51;;;;;;;52.72;49.55;;;;;;;;;;5043165;28;20048;-79
2024/01/06 04:13:21;;;;;;;56.72;53.55;;;;;;;;;;5042846;28;20577;-76
2024/01/06 04:15:51;;;;;;;63.97;60.05;;;;;;;;;;5042478;28;20052;-79
2024/01/06 04:18:22;;;;;;;57.72;54.47;;;;;;;;;;5041593;28;20061;-78
2024/01/06 04:20:53;;;;;;;56.97;53.83;;;;;;;;;;5041289;28;20056;-77
2024/01/06 04:23:25;;;;;;;65.93;62.28;;;;;;;;;;5043487;28;20041;-75
2024/01/06 04:25:55;;;;;;;62.03;58.13;;;;;;;;;;5042661;28;20045;-77
2024/01/06 04:28:25;;;;;;;69.97;66.07;;;;;;;;;;5043525;28;20381;-78
2024/01/06 04:30:57;;;;;;;61.03;57.20;;;;;;;;;;5041992;28;20424;-77
2024/01/06 04:33:28;;;;;;;66.85;62.88;;;;;;;;;;5043193;28;20048;-80
2024/01/06 04:35:59;;;;;;;62.95;59.25;;;;;;;;;;5042161;28;20049;-80
2024/01/06 04:38:28;;;;;;;56.58;53.47;;;;;;;;;;5041960;28;20053;-78
2024/01/06 04:41:00;;;;;;;53.65;50.60;;;;;;;;;;5042434;28;20048;-75
2024/01/06 04:43:30;;;;;;;48.13;45.47;;;;;;;;;;5042417;28;20057;-75
2024/01/06 04:46:01;;;;;;;50.75;47.80;;;;;;;;;;5042402;28;20131;-79
2024/01/06 04:48:31;;;;;;;52.08;48.85;;;;;;;;;;5042176;28;20049;-75
2024/01/06 04:51:03;;;;;;;52.42;49.15;;;;;;;;;;5041990;28;20056;-75
2024/01/06 04:53:34;;;;;;;53.97;50.80;;;;;;;;;;5042369;28;20049;-78
2024/01/06 04:56:06;;;;;;;51.53;48.63;;;;;;;;;;5042499;28;20413;-76
2024/01/06 04:58:37;;;;;;;54.25;51.30;;;;;;;;;;5041117;28;20088;-78
2024/01/06 05:01:07;;;;;;;59.60;56.20;;;;;;;;;;5041250;28;20049;-78
2024/01/06 05:03:39;;;;;;;58.95;55.72;;;;;;;;;;5042114;28;20053;-77
2024/01/06 05:06:10;;;;;;;62.25;58.80;;;;;;;;;;5042183;28;20060;-74
2024/01/06 05:08:44;;;;;;;58.40;54.75;;;;;;;;;;5042314;28;20049;-79
2024/01/06 05:11:15;;;;;;;58.33;54.20;;;;;;;;;;5042263;28;20416;-75
2024/01/06 05:13:45;;;;;;;45.10;42.47;;;;;;;;;;5042309;28;20052;-77
2024/01/06 05:16:16;;;;;;;45.88;43.10;;;;;;;;;;5042302;28;20508;-77
2024/01/06 05:18:46;;;;;;;50.22;47.35;;;;;;;;;;5042136;28;20527;-77
2024/01/06 05:21:16;;;;;;;48.53;45.80;;;;;;;;;;5042375;28;20057;-76
2024/01/06 05:23:47;;;;;;;54.78;51.40;;;;;;;;;;5040621;28;20056;-76
2024/01/06 05:26:19;;;;;;;58.95;55.42;;;;;;;;;;5041203;28;20049;-75
2024/01/06 05:28:50;;;;;;;60.65;57.08;;;;;;;;;;5041826;28;20598;-76
2024/01/06 05:31:19;;;;;;;47.55;44.70;;;;;;;;;;5041777;28;20520;-80
2024/01/06 05:33:51;;;;;;;41.55;38.63;;;;;;;;;;5042142;28;20052;-76
2024/01/06 05:36:21;;;;;;;46.63;43.75;;;;;;;;;;5040920;28;20067;-78
2024/01/06 05:38:52;;;;;;;48.38;45.22;;;;;;;;;;5042037;28;20053;-75
2024/01/06 05:41:22;;;;;;;48.90;46.03;;;;;;;;;;5041457;28;20056;-78
2024/01/06 05:43:52;;;;;;;47.95;44.70;;;;;;;;;;5041670;28;20052;-77
2024/01/06 05:46:25;;;;;;;47.88;45.20;;;;;;;;;;5041797;28;20041;-79
2024/01/06 05:48:56;;;;;;;41.08;38.78;;;;;;;;;;5042622;28;20052;-75
2024/01/06 05:51:27;;;;;;;44.17;41.00;;;;;;;;;;5041943;28;20056;-77
2024/01/06 05:53:56;;;;;;;41.40;38.85;;;;;;;;;;5042188;28;20036;-77
2024/01/06 05:56:29;;;;;;;41.53;39.05;;;;;;;;;;5041929;28;20522;-78
2024/01/06 05:59:00;;;;;;;43.03;40.50;;;;;;;;;;5041731;28;20049;-77
2024/01/06 06:01:30;;;;;;;43.50;41.03;;;;;;;;;;5041077;28;20056;-77
2024/01/06 06:04:00;;;;;;;44.45;41.00;;;;;;;;;;5042212;28;20048;-76
2024/01/06 06:06:32;;;;;;;40.97;38.70;;;;;;;;;;5041705;28;20401;-75
2024/01/06 06:09:06;;;;;;;48.53;45.53;;;;;;;;;;5041895;28;20051;-75
2024/01/06 06:11:37;;;;;;;43.05;40.28;;;;;;;;;;5041132;28;20060;-76
2024/01/06 06:14:07;;;;;;;40.28;37.58;;;;;;;;;;5041457;28;20053;-75
2024/01/06 06:16:37;;;;;;;40.15;37.60;;;;;;;;;;5041115;28;20412;-76
2024/01/06 06:19:10;;;;;;;42.22;39.85;;;;;;;;;;5041595;28;20396;-76
2024/01/06 06:21:41;;;;;;;39.40;37.30;;;;;;;;;;5041744;28;20060;-76
2024/01/06 06:24:13;;;;;;;39.28;37.10;;;;;;;;;;5041514;28;20420;-77
2024/01/06 06:26:43;;;;;;;38.80;36.63;;;;;;;;;;5041034;28;20503;-76
2024/01/06 06:29:14;;;;;;;38.88;36.33;;;;;;;;;;5041635;28;20045;-74
2024/01/06 06:31:46;;;;;;;40.55;38.25;;;;;;;;;;5044753;28;20770;-77
2024/01/06 06:34:17;;;;;;;38.47;36.22;;;;;;;;;;5044913;28;20603;-79
2024/01/06 06:36:47;;;;;;;37.50;35.03;;;;;;;;;;5045164;28;20067;-78
2024/01/06 06:39:18;;;;;;;42.33;39.88;;;;;;;;;;5044488;28;20071;-76
2024/01/06 06:41:50;;;;;;;38.20;35.83;;;;;;;;;;5045070;28;20041;-76
2024/01/06 06:44:20;;;;;;;36.65;34.65;;;;;;;;;;5044947;28;20048;-78
2024/01/06 06:46:50;;;;;;;44.35;41.83;;;;;;;;;;5044541;28;20519;-76
2024/01/06 06:49:21;;;;;;;40.03;37.72;;;;;;;;;;5044900;28;20096;-77
2024/01/06 06:51:52;;;;;;;43.85;41.42;;;;;;;;;;5044309;28;20045;-74
2024/01/06 06:54:23;;;;;;;44.55;41.95;;;;;;;;;;5044465;28;20048;-73
2024/01/06 06:56:54;;;;;;;41.22;38.72;;;;;;;;;;5044820;28;20049;-75
2024/01/06 06:59:24;;;;;;;60.33;56.95;;;;;;;;;;5044380;28;20053;-75
2024/01/06 07:01:56;;;;;;;53.30;49.83;;;;;;;;;;5044547;28;20053;-79
2024/01/06 07:04:27;;;;;;;79.63;74.97;;;;;;;;;;5043646;28;20049;-76
2024/01/06 07:06:57;;;;;;;56.17;52.65;;;;;;;;;;5044157;28;20049;-76
2024/01/06 07:09:28;;;;;;;79.82;75.32;;;;;;;;;;5044459;28;20084;-77
2024/01/06 07:11:58;;;;;;;88.78;83.78;;;;;;;;;;5044377;28;20049;-78
2024/01/06 07:14:30;;;;;;;90.45;85.43;;;;;;;;;;5044401;28;20052;-77
2024/01/06 07:17:00;;;;;;;78.90;74.18;;;;;;;;;;5044954;28;20420;-75
2024/01/06 07:19:32;;;;;;;79.78;75.38;;;;;;;;;;5044683;28;20060;-76
2024/01/06 07:22:05;;;;;;;80.55;75.80;;;;;;;;;;5044057;28;20432;-74
2024/01/06 07:24:36;;;;;;;71.72;67.72;;;;;;;;;;5043911;28;20519;-76
2024/01/06 07:27:06;;;;;;;71.47;67.55;;;;;;;;;;5044102;28;20415;-78
2024/01/06 07:29:37;;;;;;;64.45;60.60;;;;;;;;;;5042334;28;20473;-74
2024/01/06 07:32:09;;;;;;;66.63;62.90;;;;;;;;;;5043768;28;20077;-77
2024/01/06 07:34:39;;;;;;;65.13;61.28;;;;;;;;;;5042109;28;20610;-73
2024/01/06 07:37:11;;;;;;;59.42;55.78;;;;;;;;;;5043258;28;20049;-77
2024/01/06 07:39:41;;;;;;;56.05;52.63;;;;;;;;;;5043230;28;20080;-79
2024/01/06 07:42:12;;;;;;;58.10;54.55;;;;;;;;;;5041246;28;20053;-78
2024/01/06 07:44:42;;;;;;;56.75;53.40;;;;;;;;;;5043780;28;20056;-80
2024/01/06 07:47:12;;;;;;;52.75;49.80;;;;;;;;;;5043841;28;20052;-77
2024/01/06 07:49:42;;;;;;;67.30;63.65;;;;;;;;;;5043204;28;20424;-75
2024/01/06 07:52:13;;;;;;;62.50;59.00;;;;;;;;;;5043808;28;20045;-74
2024/01/06 07:54:45;;;;;;;57.75;53.88;;;;;;;;;;5043214;28;20071;-80
2024/01/06 07:57:16;;;;;;;62.47;58.85;;;;;;;;;;5043419;28;20056;-76
2024/01/06 07:59:46;;;;;;;65.97;62.13;;;;;;;;;;5043396;28;20527;-79
2024/01/06 08:02:19;;;;;;;44.15;41.58;;;;;;;;;;5043251;28;20045;-76
2024/01/06 08:04:50;;;;;;;73.50;69.32;;;;;;;;;;5041254;28;20555;-77
2024/01/06 08:07:21;;;;;;;83.43;78.45;;;;;;;;;;5043264;28;20060;-75
2024/01/06 08:09:51;;;;;;;76.88;72.47;;;;;;;;;;5042419;28;20044;-76
2024/01/06 08:12:21;;;;;;;73.93;69.90;;;;;;;;;;5043414;28;20048;-79
2024/01/06 08:14:52;;;;;;;68.85;65.07;;;;;;;;;;5043020;28;20052;-77
2024/01/06 08:17:23;;;;;;;72.82;68.75;;;;;;;;;;5042777;28;20408;-76
2024/01/06 08:19:53;;;;;;;68.93;65.15;;;;;;;;;;5043043;28;20037;-78
2024/01/06 08:22:23;;;;;;;68.15;63.85;;;;;;;;;;5043485;28;20049;-76
2024/01/06 08:24:55;;;;;;;67.95;64.18;;;;;;;;;;5042811;28;20107;-77
2024/01/06 08:27:27;;;;;;;64.15;60.58;;;;;;;;;;5042708;28;20045;-79
2024/01/06 08:29:57;;;;;;;64.70;60.85;;;;;;;;;;5042187;28;20541;-77
2024/01/06 08:32:27;;;;;;;67.28;63.25;;;;;;;;;;5042915;28;20074;-73
2024/01/06 08:34:58;;;;;;;70.65;66.68;;;;;;;;;;5042123;28;20057;-77
2024/01/06 08:37:30;;;;;;;65.45;61.65;;;;;;;;;;5041786;28;20416;-76
2024/01/06 08:40:03;;;;;;;68.57;64.75;;;;;;;;;;5042324;28;20060;-78
2024/01/06 08:42:33;;;;;;;66.35;62.58;;;;;;;;;;5042659;28;20419;-74
2024/01/06 08:45:04;;;;;;;62.72;59.20;;;;;;;;;;5042771;28;20052;-77
2024/01/06 08:47:36;;;;;;;66.95;63.05;;;;;;;;;;5042474;28;20048;-75
2024/01/06 08:50:09;;;;;;;51.22;48.22;;;;;;;;;;5042006;28;20381;-76
2024/01/06 08:52:40;;;;;;;66.40;62.22;;;;;;;;;;5041690;28;20049;-76
2024/01/06 08:55:11;;;;;;;65.28;61.45;;;;;;;;;;5042296;28;20500;-77
2024/01/06 08:57:42;;;;;;;66.22;62.45;;;;;;;;;;5042518;28;20048;-74
2024/01/06 09:00:15;;;;;;;67.88;63.80;;;;;;;;;;5042089;28;20049;-78
2024/01/06 09:02:46;;;;;;;72.75;68.10;;;;;;;;;;5042064;28;20049;-77
2024/01/06 09:05:16;;;;;;;73.95;69.50;;;;;;;;;;5041918;28;20049;-75
2024/01/06 09:07:49;;;;;;;77.43;72.95;;;;;;;;;;5041984;28;20045;-77
2024/01/06 09:10:24;;;;;;;70.97;66.63;;;;;;;;;;5042451;28;20404;-79
2024/01/06 09:12:55;;;;;;;77.70;72.93;;;;;;;;;;5042952;28;20056;-76
2024/01/06 09:15:26;;;;;;;90.20;84.75;;;;;;;;;;5042438;28;20530;-74
2024/01/06 09:17:56;;;;;;;78.40;73.90;;;;;;;;;;5041619;28;20072;-76
2024/01/06 09:20:27;;;;;;;84.63;79.53;;;;;;;;;;5041900;28;20549;-80
2024/01/06 09:22:57;;;;;;;80.70;75.88;;;;;;;;;;5041894;28;20048;-78
2024/01/06 09:25:28;;;;;;;88.88;83.55;;;;;;;;;;5042355;28;20045;-76
2024/01/06 09:27:58;;;;;;;69.90;65.70;;;;;;;;;;5041734;28;20045;-75
2024/01/06 09:30:30;;;;;;;83.78;78.65;;;;;;;;;;5042191;28;20420;-76
2024/01/06 09:33:01;;;;;;;90.63;85.32;;;;;;;;;;5041430;28;20416;-76
2024/01/06 09:35:32;;;;;;;86.57;81.25;;;;;;;;;;5041555;28;20526;-75
2024/01/06 09:38:03;;;;;;;91.22;85.88;;;;;;;;;;5041760;28;20527;-77
2024/01/06 09:40:36;;;;;;;72.40;67.72;;;;;;;;;;5041596;28;20582;-76
2024/01/06 09:43:07;;;;;;;68.03;63.88;;;;;;;;;;5042738;28;20049;-77
2024/01/06 09:45:37;;;;;;;66.07;61.92;;;;;;;;;;5042092;28;20048;-77
2024/01/06 09:48:13;;;;;;;69.88;65.72;;;;;;;;;;5042022;28;20523;-75
2024/01/06 09:50:45;;;;;;;69.28;65.10;;;;;;;;;;5042175;28;20056;-77
2024/01/06 09:53:16;;;;;;;68.47;64.45;;;;;;;;;;5040378;28;20064;-76
2024/01/06 09:55:51;;;;;;;65.90;62.00;;;;;;;;;;5050914;28;20075;-76
2024/01/06 09:58:22;;;;;;;58.15;54.45;;;;;;;;;;5061549;28;20071;-76
2024/01/06 10:00:52;;;;;;;68.20;63.88;;;;;;;;;;5060203;28;20037;-76
2024/01/06 10:03:24;;;;;;;51.83;48.65;;;;;;;;;;5061421;28;20048;-77
2024/01/06 10:05:54;;;;;;;58.20;54.58;;;;;;;;;;5064228;28;20048;-76
2024/01/06 10:08:26;;;;;;;52.78;49.67;;;;;;;;;;5064967;28;20052;-77
2024/01/06 10:10:57;;;;;;;48.15;45.20;;;;;;;;;;5065320;28;20403;-76
2024/01/06 10:13:28;;;;;;;45.60;42.75;;;;;;;;;;5064889;28;20427;-75
2024/01/06 10:15:58;;;;;;;43.17;40.47;;;;;;;;;;5065313;28;20040;-78
2024/01/06 10:18:29;;;;;;;46.65;43.85;;;;;;;;;;5064785;28;20040;-75
2024/01/06 10:21:08;;;;;;;38.08;35.65;;;;;;;;;;5065086;28;20099;-77
2024/01/06 10:23:39;;;;;;;36.33;34.00;;;;;;;;;;5065191;28;20433;-78
2024/01/06 10:26:13;;;;;;;37.60;35.25;;;;;;;;;;5065132;28;20056;-78
2024/01/06 10:28:44;;;;;;;42.72;39.88;;;;;;;;;;5064994;28;20048;-76
2024/01/06 10:31:14;;;;;;;41.15;38.70;;;;;;;;;;5065058;28;20040;-77
2024/01/06 10:33:46;;;;;;;44.10;40.90;;;;;;;;;;5065141;28;20044;-76
2024/01/06 10:36:17;;;;;;;42.58;39.72;;;;;;;;;;5064785;28;20052;-77
2024/01/06 10:38:48;;;;;;;56.65;53.40;;;;;;;;;;5064691;28;20049;-78
2024/01/06 10:41:21;;;;;;;34.42;32.15;;;;;;;;;;5062874;28;20146;-78
2024/01/06 10:43:52;;;;;;;34.63;32.60;;;;;;;;;;5063487;28;20639;-76
2024/01/06 10:46:25;;;;;;;32.45;30.13;;;;;;;;;;5064726;28;20439;-76
2024/01/06 10:48:59;;;;;;;29.83;27.88;;;;;;;;;;5064146;28;20515;-76
2024/01/06 10:51:32;;;;;;;31.80;29.50;;;;;;;;;;5064881;28;20055;-76
2024/01/06 10:54:05;;;;;;;41.72;39.00;;;;;;;;;;5064184;28;20048;-78
2024/01/06 10:56:39;;;;;;;34.88;32.47;;;;;;;;;;5064578;28;20052;-77
2024/01/06 10:59:11;;;;;;;34.33;32.10;;;;;;;;;;5064439;28;20052;-76
2024/01/06 11:01:45;;;;;;;32.28;30.27;;;;;;;;;;5062794;28;20053;-79
2024/01/06 11:04:17;;;;;;;39.15;36.67;;;;;;;;;;5064363;28;20052;-77
2024/01/06 11:06:48;;;;;;;40.42;37.95;;;;;;;;;;5064273;28;20055;-76
2024/01/06 11:09:23;;;;;;;38.75;36.30;;;;;;;;;;5064877;28;20036;-78
2024/01/06 11:11:55;;;;;;;32.50;30.55;;;;;;;;;;5063594;28;20048;-80
2024/01/06 11:14:32;;;;;;;46.10;43.28;;;;;;;;;;5063480;28;20403;-77
2024/01/06 11:17:03;;;;;;;45.33;42.53;;;;;;;;;;5063520;28;20550;-79
2024/01/06 11:19:40;;;;;;;38.13;35.95;;;;;;;;;;5063990;28;20380;-79
2024/01/06 11:22:28;;;;;;;47.92;45.05;;;;;;;;;;5063793;28;20044;-75
2024/01/06 11:25:12;;;;;;;38.45;36.15;;;;;;;;;;5063783;28;20051;-79
2024/01/06 11:27:47;;;;;;;42.25;39.50;;;;;;;;;;5063577;28;20044;-75
2024/01/06 11:30:23;;;;;;;40.15;37.50;;;;;;;;;;5062146;28;20044;-75
2024/01/06 11:32:58;;;;;;;47.22;44.40;;;;;;;;;;5064103;28;20479;-72
2024/01/06 11:35:30;;;;;;;43.83;41.17;;;;;;;;;;5063535;28;20052;-75
2024/01/06 11:38:04;;;;;;;46.20;43.47;;;;;;;;;;5064099;28;20052;-76
2024/01/06 11:40:36;;;;;;;47.40;44.30;;;;;;;;;;5064774;28;20052;-73
2024/01/06 11:43:09;;;;;;;45.88;43.22;;;;;;;;;;5063210;28;20040;-76
2024/01/06 11:45:42;;;;;;;44.83;42.25;;;;;;;;;;5063058;28;20051;-80
2024/01/06 11:48:16;;;;;;;48.70;45.92;;;;;;;;;;5063109;28;20052;-77
2024/01/06 11:50:46;;;;;;;58.35;54.92;;;;;;;;;;5063471;28;20071;-81
2024/01/06 11:53:17;;;;;;;52.20;49.13;;;;;;;;;;5063562;28;20052;-76
2024/01/06 11:55:49;;;;;;;38.30;35.95;;;;;;;;;;5063621;28;20056;-76
2024/01/06 11:58:19;;;;;;;25.75;24.35;;;;;;;;;;5062587;28;20040;-77
2024/01/06 12:00:57;;;;;;;29.95;28.20;;;;;;;;;;5063447;28;20412;-77
2024/01/06 12:03:30;;;;;;;32.50;30.50;;;;;;;;;;5063587;28;20040;-74
2024/01/06 12:06:03;;;;;;;30.00;28.40;;;;;;;;;;5063244;28;20051;-76
2024/01/06 12:08:33;;;;;;;25.10;23.77;;;;;;;;;;5062228;28;20045;-76
2024/01/06 12:11:04;;;;;;;27.35;25.70;;;;;;;;;;5063160;28;20045;-77
2024/01/06 12:13:36;;;;;;;26.60;24.45;;;;;;;;;;5063209;28;20044;-75
2024/01/06 12:16:09;;;;;;;24.73;23.35;;;;;;;;;;5063033;28;20415;-77
2024/01/06 12:18:50;;;;;;;32.80;30.83;;;;;;;;;;5063021;28;20049;-75
2024/01/06 12:21:23;;;;;;;19.92;18.77;;;;;;;;;;5062505;28;20499;-75
2024/01/06 12:24:12;;;;;;;20.35;18.83;;;;;;;;;;5062880;28;20052;-78
2024/01/06 12:26:45;;;;;;;37.15;35.00;;;;;;;;;;5062314;28;20399;-78
2024/01/06 12:29:18;;;;;;;26.48;24.85;;;;;;;;;;5062285;28;20832;-78
2024/01/06 12:31:48;;;;;;;27.48;25.88;;;;;;;;;;5062289;28;20748;-77
2024/01/06 12:34:21;;;;;;;27.83;26.20;;;;;;;;;;5062206;28;20526;-75
2024/01/06 12:36:56;;;;;;;26.48;25.05;;;;;;;;;;5062125;28;20069;-76
2024/01/06 12:39:30;;;;;;;;;;;;;;;;;;5062842;28;20048;-76
2024/01/06 12:42:02;;;;;;;25.58;24.17;;;;;;;;;;5062248;28;19925;-76
2024/01/06 12:44:36;;;;;;;22.02;20.60;;;;;;;;;;5061255;28;20061;-77
2024/01/06 12:47:07;;;;;;;20.48;19.33;;;;;;;;;;5062637;28;20051;-76
2024/01/06 12:49:38;;;;;;;20.52;19.17;;;;;;;;;;5061298;28;20627;-75
2024/01/06 12:52:08;;;;;;;20.67;19.38;;;;;;;;;;5062430;28;20527;-77
2024/01/06 12:54:39;;;;;;;17.65;16.58;;;;;;;;;;5062448;28;20047;-83
2024/01/06 12:57:13;;;;;;;21.95;20.83;;;;;;;;;;5062623;28;20048;-75
2024/01/06 12:59:46;;;;;;;21.80;20.27;;;;;;;;;;5062249;28;20044;-75
2024/01/06 13:02:16;;;;;;;24.10;22.35;;;;;;;;;;5063004;28;20423;-74
2024/01/06 13:04:46;;;;;;;21.02;19.50;;;;;;;;;;5061346;28;20049;-76
2024/01/06 13:07:18;;;;;;;18.77;17.67;;;;;;;;;;5062467;28;20055;-76
2024/01/06 13:09:50;;;;;;;17.65;16.60;;;;;;;;;;5062078;28;20048;-75
2024/01/06 13:12:20;;;;;;;18.40;17.35;;;;;;;;;;5061845;28;20048;-76
2024/01/06 13:14:51;;;;;;;16.75;14.90;;;;;;;;;;5062114;28;20384;-77
2024/01/06 13:17:21;;;;;;;19.92;18.60;;;;;;;;;;5061961;28;20075;-78
2024/01/06 13:19:52;;;;;;;18.80;17.70;;;;;;;;;;5062069;28;20045;-78
2024/01/06 13:22:22;;;;;;;23.60;22.17;;;;;;;;;;5062235;28;20079;-86
2024/01/06 13:24:52;;;;;;;25.13;23.67;;;;;;;;;;5061951;28;20095;-76
2024/01/06 13:27:23;;;;;;;18.83;17.70;;;;;;;;;;5061639;28;20048;-76
2024/01/06 13:29:55;;;;;;;17.13;16.13;;;;;;;;;;5061724;28;20060;-75
2024/01/06 13:32:27;;;;;;;14.75;13.80;;;;;;;;;;5061951;28;20046;-77
2024/01/06 13:35:04;;;;;;;20.85;19.52;;;;;;;;;;5062232;28;20443;-76
2024/01/06 13:37:34;;;;;;;20.90;19.73;;;;;;;;;;5062717;28;20051;-75
2024/01/06 13:40:08;;;;;;;21.60;20.38;;;;;;;;;;5065277;28;20056;-78
2024/01/06 13:42:40;;;;;;;25.65;24.00;;;;;;;;;;5065483;28;20044;-75
2024/01/06 13:45:10;;;;;;;20.25;18.85;;;;;;;;;;5066114;28;20047;-77
2024/01/06 13:47:44;;;;;;;18.30;17.23;;;;;;;;;;5066194;28;20045;-78
2024/01/06 13:50:18;;;;;;;17.80;16.73;;;;;;;;;;5065985;28;20045;-80
2024/01/06 13:52:49;;;;;;;21.92;20.58;;;;;;;;;;5065471;28;20051;-76
2024/01/06 13:55:19;;;;;;;17.17;15.95;;;;;;;;;;5065749;28;20052;-73
2024/01/06 13:57:49;;;;;;;19.75;18.67;;;;;;;;;;5065501;28;20044;-79
2024/01/06 14:00:20;;;;;;;18.85;17.23;;;;;;;;;;5065887;28;20603;-75
2024/01/06 14:02:53;;;;;;;20.75;19.65;;;;;;;;;;5064652;28;20048;-76
2024/01/06 14:05:25;;;;;;;22.52;21.33;;;;;;;;;;5066223;28;20479;-76
2024/01/06 14:07:55;;;;;;;22.55;21.15;;;;;;;;;;5066531;28;20045;-77
2024/01/06 14:10:26;;;;;;;21.80;20.67;;;;;;;;;;5065587;28;20048;-77
2024/01/06 14:12:57;;;;;;;22.73;21.42;;;;;;;;;;5065218;28;20044;-74
2024/01/06 14:15:30;;;;;;;24.38;22.75;;;;;;;;;;5064934;28;20052;-75
2024/01/06 14:18:01;;;;;;;22.70;21.45;;;;;;;;;;5065503;28;20048;-77
2024/01/06 14:20:34;;;;;;;21.73;20.52;;;;;;;;;;5064988;28;20048;-80
2024/01/06 14:23:06;;;;;;;29.98;28.38;;;;;;;;;;5065380;28;20056;-78
2024/01/06 14:25:37;;;;;;;24.95;23.60;;;;;;;;;;5065285;28;20060;-77
2024/01/06 14:28:07;;;;;;;26.48;24.92;;;;;;;;;;5063020;28;20059;-75
2024/01/06 14:30:37;;;;;;;27.02;25.48;;;;;;;;;;5064797;28;20055;-75
2024/01/06 14:33:09;;;;;;;27.55;25.90;;;;;;;;;;5064899;28;20036;-77
2024/01/06 14:35:42;;;;;;;32.00;30.20;;;;;;;;;;5063857;28;20064;-74
2024/01/06 14:38:13;;;;;;;21.15;19.95;;;;;;;;;;5065554;28;20052;-75
2024/01/06 14:40:53;;;;;;;26.42;24.85;;;;;;;;;;5065212;28;20399;-73
2024/01/06 14:43:23;;;;;;;24.42;22.92;;;;;;;;;;5064356;28;20053;-77